• Join FlightAware (Why Join?)
  • Login
  • US Flag 
10:43PM EDT


 

Airport Tracker/Info


-or-


 

Live Flight TrackerFlight Track Log ✈ N125GH ✈ 13-Sep-2013 ✈ KNEW - KHTO

Flight Track Log - Related Links

Times and Time Zones

All times are in EDT time to prevent confusion due to time zone crossing. See the N125GH flight status page for this flight to view local times or setup timezone preferences in your user account.

Time Position Orientation Groundspeed Altitude Reporting Facility
EDT Latitude Longitude Course Direction KTS MPH feet Rate Location/Type
09:03AM 30.1364 -89.9733 33° Northeast 259 298 45,000  Level Houston Center
09:04AM 30.1528 -89.9606 34° Northeast 260 299 5,600 -37,200 Descending Houston Center
09:04AM 30.1903 -89.9364 29° Northeast 257 296 7,200 3,000 Climbing Houston Center
09:05AM 30.2672 -89.8817 32° Northeast 269 310 11,000 2,880 Climbing Houston Center
09:06AM 30.3236 -89.8253 41° Northeast 304 350 13,200 2,640 Climbing Houston Center
09:07AM 30.4067 -89.7372 42° Northeast 337 388 16,500 3,060 Climbing Houston Center
09:08AM 30.4842 -89.6519 43° Northeast 364 419 19,500 2,940 Climbing Houston Center
09:09AM 30.5822 -89.5447 43° Northeast 397 457 22,600 2,580 Climbing Houston Center
09:10AM 30.6500 -89.4311 55° Northeast 425 489 24,900 2,040 Climbing Houston Center
09:11AM 30.7119 -89.3103 59° Northeast 432 497 26,900 1,800 Climbing Houston Center
09:13AM 30.7772 -89.1819 59° Northeast 455 524 28,700 1,680 Climbing Houston Center
09:14AM 30.8442 -89.0528 59° Northeast 464 534 30,400 1,560 Climbing Houston Center
09:15AM 30.9142 -88.9194 59° Northeast 476 548 31,900 1,440 Climbing Houston Center
09:16AM 30.9847 -88.7839 59° Northeast 486 559 33,400 1,740 Climbing Houston Center
09:17AM 31.0681 -88.6222 59° Northeast 486 559 35,500 1,800 Climbing Houston Center
09:18AM 31.1356 -88.4911 59° Northeast 477 549 37,100 1,560 Climbing Houston Center
09:19AM 31.2022 -88.3600 59° Northeast 472 543 38,700 1,500 Climbing Houston Center
09:20AM 31.2697 -88.2283 59° Northeast 472 543 40,200 1,140 Climbing Houston Center
09:21AM 31.3378 -88.0961 59° Northeast 475 547 41,100 780 Climbing Houston Center
09:22AM 31.4053 -87.9611 60° Northeast 480 552 41,900 780 Climbing Houston Center
09:23AM 31.4719 -87.8297 59° Northeast 474 545 42,800 900 Climbing Houston Center
09:24AM 31.5383 -87.6992 59° Northeast 469 540 43,800 840 Climbing Houston Center
09:25AM 31.6108 -87.5536 60° Northeast 467 537 44,600 660 Climbing Houston Center
09:25AM 31.6508 -87.4786 58° Northeast 462 532 44,900 180 Climbing Atlanta Center
09:26AM 31.7169 -87.3469 59° Northeast 462 532 44,900  Level Atlanta Center
09:27AM 31.7808 -87.2172 60° Northeast 456 525 44,900  Level Atlanta Center
09:29AM 31.8465 -87.0828 60° Northeast  Level FlightAware Approximate
09:35AM 32.3189 -86.1772 52° Northeast 463 533 44,900  Level Atlanta Center
09:36AM 32.2979 -86.1948 52° Northeast  Level FlightAware Approximate
09:36AM 32.4000 -86.0586 51° Northeast 463 533 44,900  Level Atlanta Center
09:37AM 32.3758 -86.0783 52° Northeast  Level FlightAware Approximate
09:38AM 32.4536 -85.9617 52° Northeast  Level FlightAware Approximate
09:38AM 32.4810 -85.9355 52° Northeast  Level FlightAware Approximate
09:38AM 32.5647 -85.8133 52° Northeast 470 541 44,900  Level Atlanta Center
09:39AM 32.5313 -85.8449 52° Northeast  Level FlightAware Approximate
09:40AM 32.6088 -85.7279 52° Northeast  Level FlightAware Approximate
09:40AM 32.6451 -85.6895 52° Northeast  Level FlightAware Approximate
09:41AM 32.6863 -85.6107 52° Northeast  Level FlightAware Approximate
09:47AM 33.1782 -84.8581 52° Northeast  Level FlightAware Approximate
09:48AM 33.2560 -84.7405 52° Northeast  Level FlightAware Approximate
09:49AM 33.3339 -84.6228 52° Northeast  Level FlightAware Approximate
09:50AM 33.4116 -84.5049 52° Northeast  Level FlightAware Approximate
09:51AM 33.4893 -84.3868 52° Northeast  Level FlightAware Approximate
09:52AM 33.5668 -84.2685 52° Northeast  Level FlightAware Approximate
09:53AM 33.6402 -84.1471 67° East  Level FlightAware Approximate
09:54AM 33.6887 -84.0080 67° East  Level FlightAware Approximate
09:55AM 33.7371 -83.8689 67° East  Level FlightAware Approximate
09:56AM 33.7859 -83.7299 67° East  Level FlightAware Approximate
09:57AM 33.8356 -83.5912 67° East  Level FlightAware Approximate
09:58AM 33.8851 -83.4524 67° East  Level FlightAware Approximate
09:59AM 33.9349 -83.3137 57° Northeast  Level FlightAware Approximate
10:00AM 34.0027 -83.1864 57° Northeast  Level FlightAware Approximate
10:01AM 34.0704 -83.0589 57° Northeast  Level FlightAware Approximate
10:02AM 34.1379 -82.9312 57° Northeast  Level FlightAware Approximate
10:03AM 34.2053 -82.8033 57° Northeast  Level FlightAware Approximate
10:04AM 34.2724 -82.6750 58° Northeast  Level FlightAware Approximate
10:05AM 34.3393 -82.5465 58° Northeast  Level FlightAware Approximate
10:06AM 34.4060 -82.4178 58° Northeast  Level FlightAware Approximate
10:07AM 34.4725 -82.2888 58° Northeast  Level FlightAware Approximate
10:08AM 34.5390 -82.1597 58° Northeast  Level FlightAware Approximate
10:09AM 34.6053 -82.0303 58° Northeast  Level FlightAware Approximate
10:10AM 34.6714 -81.9007 58° Northeast  Level FlightAware Approximate
10:11AM 34.7374 -81.7710 58° Northeast  Level FlightAware Approximate
10:12AM 34.8033 -81.6410 58° Northeast  Level FlightAware Approximate
10:13AM 34.8691 -81.5108 58° Northeast  Level FlightAware Approximate
10:14AM 34.9347 -81.3804 58° Northeast  Level FlightAware Approximate
10:15AM 35.0001 -81.2497 59° Northeast  Level FlightAware Approximate
10:16AM 35.0653 -81.1188 59° Northeast  Level FlightAware Approximate
10:17AM 35.1304 -80.9877 59° Northeast  Level FlightAware Approximate
10:18AM 35.1953 -80.8564 59° Northeast  Level FlightAware Approximate
10:19AM 35.2601 -80.7249 59° Northeast  Level FlightAware Approximate
10:20AM 35.3247 -80.5931 59° Northeast  Level FlightAware Approximate
10:21AM 35.3892 -80.4612 59° Northeast  Level FlightAware Approximate
10:22AM 35.4536 -80.3290 59° Northeast  Level FlightAware Approximate
10:23AM 35.5183 -80.1970 58° Northeast  Level FlightAware Approximate
10:24AM 35.5842 -80.0657 58° Northeast  Level FlightAware Approximate
10:25AM 35.6499 -79.9343 58° Northeast  Level FlightAware Approximate
10:26AM 35.7155 -79.8026 58° Northeast  Level FlightAware Approximate
10:27AM 35.7737 -79.6658 64° Northeast  Level FlightAware Approximate
10:28AM 35.8413 -79.5366 51° Northeast  Level FlightAware Approximate
10:29AM 35.9198 -79.4158 51° Northeast  Level FlightAware Approximate
10:30AM 35.9982 -79.2948 51° Northeast  Level FlightAware Approximate
10:31AM 36.0765 -79.1735 51° Northeast  Level FlightAware Approximate
10:32AM 36.1547 -79.0520 51° Northeast  Level FlightAware Approximate
10:33AM 36.2301 -78.9279 53° Northeast  Level FlightAware Approximate
10:34AM 36.3050 -78.8030 53° Northeast  Level FlightAware Approximate
10:35AM 36.3792 -78.6774 55° Northeast  Level FlightAware Approximate
10:36AM 36.4505 -78.5491 52° Northeast  Level FlightAware Approximate
10:37AM 36.5272 -78.4256 52° Northeast  Level FlightAware Approximate
10:38AM 36.6037 -78.3018 52° Northeast  Level FlightAware Approximate
10:39AM 36.6800 -78.1777 52° Northeast  Level FlightAware Approximate
10:40AM 36.7563 -78.0534 53° Northeast  Level FlightAware Approximate
10:41AM 36.8324 -77.9289 53° Northeast  Level FlightAware Approximate
10:42AM 36.9286 -77.8301 35° Northeast  Level FlightAware Approximate
10:43AM 37.0308 -77.7390 35° Northeast  Level FlightAware Approximate
10:44AM 37.1329 -77.6477 35° Northeast  Level FlightAware Approximate
10:45AM 37.2350 -77.5561 36° Northeast  Level FlightAware Approximate
10:46AM 37.3369 -77.4642 36° Northeast  Level FlightAware Approximate
10:47AM 37.4388 -77.3721 36° Northeast  Level FlightAware Approximate
10:48AM 37.5380 -77.2754 41° Northeast  Level FlightAware Approximate
10:49AM 37.6329 -77.1718 41° Northeast  Level FlightAware Approximate
10:50AM 37.7295 -77.0707 38° Northeast  Level FlightAware Approximate
10:51AM 37.8280 -76.9724 38° Northeast  Level FlightAware Approximate
10:52AM 37.9264 -76.8738 38° Northeast  Level FlightAware Approximate
10:53AM 38.0132 -76.7603 51° Northeast  Level FlightAware Approximate
10:54AM 38.0932 -76.6377 44° Northeast  Level FlightAware Approximate
10:55AM 38.1828 -76.5259 44° Northeast  Level FlightAware Approximate
10:56AM 38.2722 -76.4139 44° Northeast  Level FlightAware Approximate
10:57AM 38.3713 -76.3161 37° Northeast  Level FlightAware Approximate
10:58AM 38.4717 -76.2201 37° Northeast  Level FlightAware Approximate
10:59AM 38.5721 -76.1238 37° Northeast  Level FlightAware Approximate
11:00AM 38.6723 -76.0273 37° Northeast  Level FlightAware Approximate
11:01AM 38.7762 -75.9371 34° Northeast  Level FlightAware Approximate
11:02AM 38.8764 -75.8403 38° Northeast  Level FlightAware Approximate
11:03AM 38.9754 -75.7413 38° Northeast  Level FlightAware Approximate
11:04AM 39.0764 -75.6456 32° Northeast  Level FlightAware Approximate
11:05AM 39.1761 -75.5487 43° Northeast  Level FlightAware Approximate
11:06AM 39.2603 -75.4293 51° Northeast  Level FlightAware Approximate
11:07AM 39.3383 -75.3023 51° Northeast  Level FlightAware Approximate
11:08AM 39.4129 -75.1718 54° Northeast  Level FlightAware Approximate
11:09AM 39.4867 -75.0404 54° Northeast  Level FlightAware Approximate
11:10AM 39.5616 -74.9103 57° Northeast  Level FlightAware Approximate
11:11AM 39.6298 -74.7737 57° Northeast  Level FlightAware Approximate
11:12AM 39.7022 -74.6405 55° Northeast  Level FlightAware Approximate
11:13AM 39.7748 -74.5074 55° Northeast  Level FlightAware Approximate
11:14AM 39.8478 -74.3746 53° Northeast  Level FlightAware Approximate
11:15AM 39.9208 -74.2417 57° Northeast  Level FlightAware Approximate
11:16AM 39.9944 -74.1093 52° Northeast  Level FlightAware Approximate
11:17AM 40.0651 -73.9740 55° Northeast  Level FlightAware Approximate
11:18AM 40.1368 -73.8395 55° Northeast  Level FlightAware Approximate
11:19AM 40.2006 -73.6988 57° Northeast  Level FlightAware Approximate
11:20AM 40.2697 -73.5616 52° Northeast  Level FlightAware Approximate
11:21AM 40.3385 -73.4256 49° Northeast  Level FlightAware Approximate
11:22AM 40.4167 -73.2977 90° East  Level FlightAware Approximate
11:23AM 40.4847 -73.1639 57° Northeast  Level FlightAware Approximate
11:24AM 40.5551 -73.0344 60° Northeast  Level FlightAware Approximate
11:25AM 40.6227 -72.8956 52° Northeast  Level FlightAware Approximate
11:26AM 40.6888 -72.7558 57° Northeast  Level FlightAware Approximate
11:26AM 40.9167 -72.2667 52° Northeast 208 239 1,500  Level New York TRACON
11:27AM 40.7586 -72.6183 53° Northeast  Level FlightAware Approximate
11:27AM 40.9333 -72.2000 72° East 168 193 1,600  Level New York TRACON
11:28AM 40.8303 -72.4827 62° Northeast  Level FlightAware Approximate
11:28AM 40.9500 -72.1667 56° Northeast 164 189 1,400  Level New York TRACON
11:29AM 40.8958 -72.3438 62° Northeast  Level FlightAware Approximate
11:30AM 40.9500 -72.2500 52° Northeast  Level FlightAware Approximate
11:31AM 40.9594 -72.2517 52° Northeast  Level Estimated
11:32AM 40.9594 -72.2517 52° Northeast  Level Estimated
11:33AM 40.9594 -72.2517 52° Northeast  Level Estimated
11:34AM 40.9594 -72.2517 52° Northeast  Level Estimated
11:35AM 40.9594 -72.2517 52° Northeast  Level Estimated
11:36AM 40.9594 -72.2517 52° Northeast  Level Estimated